Time;durP1;ratioP1;P1;durP2;ratioP2;P2;SDS_P1;SDS_P2;PMS_P1;PMS_P2;Temp;Humidity;BMP_temperature;BMP_pressure;BME280_temperature;BME280_humidity;BME280_pressure;Samples;Min_cycle;Max_cycle;Signal;HPM_P1;HPM_P2
2023/01/01 00:01:38;;;;;;;21.05;12.00;;;;;;;;;;5095052;28;20036;-47
2023/01/01 00:04:05;;;;;;;26.00;12.32;;;;;;;;;;5089836;28;20040;-44
2023/01/01 00:06:31;;;;;;;24.60;12.63;;;;;;;;;;5088761;28;20040;-48
2023/01/01 00:11:41;;;;;;;24.90;12.77;;;;;;;;;;5094945;28;20039;-44
2023/01/01 00:14:07;;;;;;;23.60;11.38;;;;;;;;;;5086104;28;20482;-44
2023/01/01 00:16:33;;;;;;;23.92;11.85;;;;;;;;;;5094844;28;20020;-47
2023/01/01 00:18:59;;;;;;;18.73;11.65;;;;;;;;;;5091440;28;20020;-44
2023/01/01 00:21:25;;;;;;;19.02;11.23;;;;;;;;;;5076012;28;20034;-44
2023/01/01 00:23:51;;;;;;;18.85;11.43;;;;;;;;;;5086547;28;20101;-45
2023/01/01 00:26:18;;;;;;;23.25;11.55;;;;;;;;;;5089285;28;20020;-45
2023/01/01 00:28:44;;;;;;;17.90;12.20;;;;;;;;;;5091258;28;20016;-44
2023/01/01 00:31:12;;;;;;;19.08;10.63;;;;;;;;;;5092561;28;20021;-44
2023/01/01 00:33:38;;;;;;;26.17;11.27;;;;;;;;;;5090388;28;20428;-44
2023/01/01 00:36:08;;;;;;;18.27;11.18;;;;;;;;;;5088314;28;20016;-44
2023/01/01 00:38:34;;;;;;;22.40;11.70;;;;;;;;;;5091308;28;20031;-47
2023/01/01 00:41:00;;;;;;;18.02;10.13;;;;;;;;;;5091917;28;20044;-44
2023/01/01 00:43:26;;;;;;;21.73;10.00;;;;;;;;;;5091391;28;20035;-45
2023/01/01 00:45:52;;;;;;;16.92;10.43;;;;;;;;;;5090050;28;20020;-47
2023/01/01 00:48:19;;;;;;;19.73;10.63;;;;;;;;;;5084643;28;20449;-44
2023/01/01 00:50:46;;;;;;;17.63;10.23;;;;;;;;;;5093297;28;20025;-44
2023/01/01 00:53:12;;;;;;;16.58;10.45;;;;;;;;;;5087130;28;20123;-44
2023/01/01 00:55:39;;;;;;;21.27;10.30;;;;;;;;;;5092443;28;20095;-44
2023/01/01 00:58:05;;;;;;;16.63;9.65;;;;;;;;;;5091990;28;20028;-45
2023/01/01 01:00:31;;;;;;;19.55;10.70;;;;;;;;;;5093324;28;20024;-47
2023/01/01 01:02:57;;;;;;;16.17;10.25;;;;;;;;;;5091931;28;20070;-45
2023/01/01 01:05:23;;;;;;;15.60;9.50;;;;;;;;;;5092742;28;20078;-44
2023/01/01 01:07:49;;;;;;;16.25;9.88;;;;;;;;;;5091442;28;20016;-44
2023/01/01 01:10:15;;;;;;;14.98;9.40;;;;;;;;;;5082134;28;20031;-44
2023/01/01 01:12:41;;;;;;;15.52;9.10;;;;;;;;;;5091289;28;20024;-45
2023/01/01 01:15:08;;;;;;;16.20;8.77;;;;;;;;;;5092389;28;20094;-44
2023/01/01 01:17:34;;;;;;;16.35;8.93;;;;;;;;;;5092267;28;20027;-47
2023/01/01 01:20:00;;;;;;;12.63;9.07;;;;;;;;;;5092122;28;20549;-44
2023/01/01 01:22:26;;;;;;;14.82;9.45;;;;;;;;;;5092250;28;20065;-45
2023/01/01 01:24:52;;;;;;;14.10;9.35;;;;;;;;;;5091259;28;20028;-44
2023/01/01 01:27:18;;;;;;;12.93;8.85;;;;;;;;;;5088426;28;20024;-44
2023/01/01 01:29:44;;;;;;;16.70;9.55;;;;;;;;;;5091526;28;20035;-44
2023/01/01 01:32:11;;;;;;;13.00;9.27;;;;;;;;;;5092546;28;20028;-44
2023/01/01 01:34:37;;;;;;;14.50;9.00;;;;;;;;;;5090906;28;20085;-44
2023/01/01 01:37:03;;;;;;;13.38;8.50;;;;;;;;;;5092087;28;20028;-44
2023/01/01 01:39:29;;;;;;;14.20;9.65;;;;;;;;;;5092004;28;20073;-44
2023/01/01 01:41:55;;;;;;;12.95;8.70;;;;;;;;;;5091409;28;20024;-46
2023/01/01 01:44:40;;;;;;;15.43;9.57;;;;;;;;;;5077842;28;20500;-44
2023/01/01 01:47:08;;;;;;;17.98;9.02;;;;;;;;;;5092331;28;20129;-44
2023/01/01 01:49:34;;;;;;;12.75;8.70;;;;;;;;;;5091162;28;20024;-47
2023/01/01 01:52:01;;;;;;;16.33;9.43;;;;;;;;;;5092500;28;20047;-45
2023/01/01 01:54:28;;;;;;;13.07;8.50;;;;;;;;;;5091556;28;20028;-44
2023/01/01 01:56:56;;;;;;;12.52;7.97;;;;;;;;;;5090763;28;20024;-44
2023/01/01 01:59:24;;;;;;;13.00;8.90;;;;;;;;;;5089786;28;20658;-44
2023/01/01 02:01:50;;;;;;;15.85;8.95;;;;;;;;;;5087483;28;20841;-44
2023/01/01 02:04:16;;;;;;;12.95;9.00;;;;;;;;;;5090838;28;20024;-44
2023/01/01 02:06:42;;;;;;;13.85;9.13;;;;;;;;;;5090693;28;20080;-46
2023/01/01 02:09:09;;;;;;;13.88;9.30;;;;;;;;;;5091601;28;20101;-44
2023/01/01 02:11:35;;;;;;;13.95;8.82;;;;;;;;;;5085225;28;20021;-48
2023/01/01 02:14:02;;;;;;;13.43;7.90;;;;;;;;;;5090906;28;20029;-46
2023/01/01 02:16:37;;;;;;;12.50;8.10;;;;;;;;;;5080453;28;20459;-44
2023/01/01 02:19:03;;;;;;;11.23;7.85;;;;;;;;;;5081522;28;20035;-45
2023/01/01 02:21:32;;;;;;;12.73;9.20;;;;;;;;;;5091635;28;20028;-44
2023/01/01 02:24:10;;;;;;;10.93;8.10;;;;;;;;;;5090686;28;20024;-44
2023/01/01 02:26:55;;;;;;;11.73;8.38;;;;;;;;;;5090759;28;20069;-44
2023/01/01 02:29:39;;;;;;;11.63;8.23;;;;;;;;;;5090855;28;20036;-44
2023/01/01 02:32:20;;;;;;;15.38;8.60;;;;;;;;;;5091620;28;20032;-44
2023/01/01 02:34:54;;;;;;;14.82;8.52;;;;;;;;;;5083421;28;20028;-45
2023/01/01 02:37:21;;;;;;;11.07;7.93;;;;;;;;;;5080773;28;20366;-45
2023/01/01 02:39:54;;;;;;;11.80;7.25;;;;;;;;;;5090269;28;20385;-44
2023/01/01 02:42:23;;;;;;;11.77;8.05;;;;;;;;;;5087350;28;20020;-44
2023/01/01 02:44:50;;;;;;;11.02;7.10;;;;;;;;;;5090062;28;20024;-44
2023/01/01 02:47:18;;;;;;;13.02;7.60;;;;;;;;;;5091728;28;20020;-44
2023/01/01 02:49:47;;;;;;;13.18;8.00;;;;;;;;;;5090271;28;20362;-44
2023/01/01 02:52:25;;;;;;;11.23;7.10;;;;;;;;;;5082292;28;20102;-44
2023/01/01 02:54:54;;;;;;;9.70;6.70;;;;;;;;;;5089978;28;20036;-44
2023/01/01 02:57:20;;;;;;;11.88;7.82;;;;;;;;;;5090801;28;20035;-44
2023/01/01 03:03:04;;;;;;;10.95;6.65;;;;;;;;;;5078510;28;20092;-44
2023/01/01 03:08:49;;;;;;;8.80;6.65;;;;;;;;;;5024932;28;20082;-44
2023/01/01 03:11:17;;;;;;;9.48;7.00;;;;;;;;;;5045038;28;20025;-44
2023/01/01 03:13:52;;;;;;;11.32;7.07;;;;;;;;;;5049161;28;20029;-44
2023/01/01 03:16:24;;;;;;;9.93;6.55;;;;;;;;;;5035769;28;20071;-44
2023/01/01 03:19:12;;;;;;;11.73;7.25;;;;;;;;;;5042708;28;20017;-44
2023/01/01 03:21:42;;;;;;;9.50;7.07;;;;;;;;;;5049983;28;20027;-44
2023/01/01 03:24:34;;;;;;;10.32;7.30;;;;;;;;;;5050069;28;20025;-44
2023/01/01 03:27:00;;;;;;;;;;;;;;;;;;5038289;28;20398;-44
2023/01/01 03:29:27;;;;;;;10.23;7.05;;;;;;;;;;5050070;28;19904;-44
2023/01/01 03:31:55;;;;;;;7.65;5.93;;;;;;;;;;5049557;28;20013;-44
2023/01/01 03:34:25;;;;;;;8.90;5.70;;;;;;;;;;5050025;28;20037;-44
2023/01/01 03:36:55;;;;;;;8.73;6.28;;;;;;;;;;5057210;28;20051;-44
2023/01/01 03:39:30;;;;;;;9.95;6.68;;;;;;;;;;5050339;28;20033;-44
2023/01/01 03:42:15;;;;;;;10.57;7.53;;;;;;;;;;5039144;28;20025;-44
2023/01/01 03:44:45;;;;;;;8.90;6.70;;;;;;;;;;5049274;28;20037;-45
2023/01/01 03:47:12;;;;;;;10.15;7.20;;;;;;;;;;5054062;28;20035;-44
2023/01/01 03:49:38;;;;;;;8.27;6.03;;;;;;;;;;5052913;28;20013;-44
2023/01/01 03:52:14;;;;;;;9.25;6.35;;;;;;;;;;5054014;28;20028;-44
2023/01/01 03:54:58;;;;;;;9.57;5.90;;;;;;;;;;5052919;28;20032;-45
2023/01/01 03:57:33;;;;;;;11.15;6.18;;;;;;;;;;5053699;28;20071;-44
2023/01/01 04:00:08;;;;;;;8.10;6.10;;;;;;;;;;5050255;28;20021;-45
2023/01/01 04:02:37;;;;;;;8.02;5.43;;;;;;;;;;5053092;28;20478;-47
2023/01/01 04:05:06;;;;;;;9.18;6.72;;;;;;;;;;5056745;28;20549;-44
2023/01/01 04:07:32;;;;;;;8.55;5.90;;;;;;;;;;5073775;28;20025;-48
2023/01/01 04:10:00;;;;;;;7.22;5.80;;;;;;;;;;5073297;28;20040;-44
2023/01/01 04:12:26;;;;;;;9.25;6.78;;;;;;;;;;5067891;28;20017;-44
2023/01/01 04:14:52;;;;;;;8.63;6.43;;;;;;;;;;5071509;28;20255;-44
2023/01/01 04:17:18;;;;;;;7.80;5.93;;;;;;;;;;5065196;28;20489;-44
2023/01/01 04:19:44;;;;;;;6.90;5.35;;;;;;;;;;5072612;28;20024;-44
2023/01/01 04:22:10;;;;;;;7.43;5.38;;;;;;;;;;5073404;28;20029;-44
2023/01/01 04:24:36;;;;;;;8.02;5.57;;;;;;;;;;5071663;28;20028;-45
2023/01/01 04:27:02;;;;;;;8.40;5.82;;;;;;;;;;5070361;28;20027;-44
2023/01/01 04:29:28;;;;;;;7.97;5.43;;;;;;;;;;5069235;28;20028;-44
2023/01/01 04:31:54;;;;;;;7.32;5.22;;;;;;;;;;5072133;28;20123;-44
2023/01/01 04:34:20;;;;;;;7.93;5.28;;;;;;;;;;5071549;28;20449;-45
2023/01/01 04:36:46;;;;;;;7.93;5.10;;;;;;;;;;5072551;28;20070;-44
2023/01/01 04:39:12;;;;;;;6.55;4.95;;;;;;;;;;5073076;28;20030;-44
2023/01/01 04:41:38;;;;;;;7.90;5.43;;;;;;;;;;5072343;28;20104;-44
2023/01/01 04:44:04;;;;;;;7.22;5.00;;;;;;;;;;5072362;28;20028;-44
2023/01/01 04:46:30;;;;;;;7.18;5.18;;;;;;;;;;5073077;28;20103;-44
2023/01/01 04:48:56;;;;;;;6.75;5.25;;;;;;;;;;5070439;28;20103;-44
2023/01/01 04:51:22;;;;;;;7.50;5.30;;;;;;;;;;5067539;28;20025;-44
2023/01/01 04:53:48;;;;;;;9.10;5.57;;;;;;;;;;5071815;28;20029;-44
2023/01/01 04:56:16;;;;;;;8.13;5.47;;;;;;;;;;5072665;28;20021;-45
2023/01/01 04:58:42;;;;;;;9.10;5.95;;;;;;;;;;5070375;28;20396;-45
2023/01/01 05:01:13;;;;;;;7.95;5.13;;;;;;;;;;5072814;28;20470;-44
2023/01/01 05:03:39;;;;;;;8.80;5.23;;;;;;;;;;5071631;28;20032;-44
2023/01/01 05:06:07;;;;;;;8.52;5.10;;;;;;;;;;5072325;28;20493;-44
2023/01/01 05:08:34;;;;;;;6.15;4.45;;;;;;;;;;5071455;28;20092;-48
2023/01/01 05:11:00;;;;;;;6.35;4.45;;;;;;;;;;5069054;28;20035;-44
2023/01/01 05:13:27;;;;;;;7.03;4.50;;;;;;;;;;5070113;28;20037;-44
2023/01/01 05:15:52;;;;;;;5.97;4.50;;;;;;;;;;5062628;28;20099;-45
2023/01/01 05:18:18;;;;;;;5.70;4.50;;;;;;;;;;5071669;28;20096;-44
2023/01/01 05:20:44;;;;;;;6.40;4.22;;;;;;;;;;5071862;28;20024;-44
2023/01/01 05:23:10;;;;;;;6.80;4.20;;;;;;;;;;5072053;28;20056;-44
2023/01/01 05:25:36;;;;;;;6.18;4.25;;;;;;;;;;5067995;28;20111;-44
2023/01/01 05:28:02;;;;;;;5.68;4.38;;;;;;;;;;5071805;28;20070;-44
2023/01/01 05:30:28;;;;;;;5.53;3.90;;;;;;;;;;5072614;28;20082;-44
2023/01/01 05:32:54;;;;;;;6.43;4.78;;;;;;;;;;5070506;28;20245;-44
2023/01/01 05:35:20;;;;;;;6.00;4.03;;;;;;;;;;5071976;28;20128;-44
2023/01/01 05:37:46;;;;;;;5.63;3.85;;;;;;;;;;5071312;28;20514;-44
2023/01/01 05:40:12;;;;;;;5.22;4.13;;;;;;;;;;5072091;28;20078;-44
2023/01/01 05:42:38;;;;;;;6.22;4.53;;;;;;;;;;5070430;28;20027;-44
2023/01/01 05:45:05;;;;;;;6.90;4.45;;;;;;;;;;5072053;28;20020;-44
2023/01/01 05:47:30;;;;;;;5.65;4.47;;;;;;;;;;5071578;28;20024;-46
2023/01/01 05:49:56;;;;;;;7.40;4.53;;;;;;;;;;5070557;28;20133;-45
2023/01/01 05:52:22;;;;;;;5.40;4.20;;;;;;;;;;5071883;28;20025;-44
2023/01/01 05:54:48;;;;;;;5.90;3.90;;;;;;;;;;5070391;28;20386;-44
2023/01/01 05:57:14;;;;;;;6.05;4.47;;;;;;;;;;5071227;28;20021;-45
2023/01/01 05:59:40;;;;;;;4.90;3.67;;;;;;;;;;5065596;28;20020;-44
2023/01/01 06:02:06;;;;;;;5.43;3.47;;;;;;;;;;5071795;28;20025;-44
2023/01/01 06:04:32;;;;;;;4.45;3.50;;;;;;;;;;5070887;28;20488;-47
2023/01/01 06:06:58;;;;;;;6.20;4.47;;;;;;;;;;5070789;28;20040;-44
2023/01/01 06:09:24;;;;;;;5.80;3.58;;;;;;;;;;5070682;28;20509;-44
2023/01/01 06:11:50;;;;;;;5.55;3.60;;;;;;;;;;5065432;28;20091;-44
2023/01/01 06:14:16;;;;;;;5.03;3.53;;;;;;;;;;5070397;28;20035;-44
2023/01/01 06:16:42;;;;;;;6.53;4.28;;;;;;;;;;5059187;28;20016;-45
2023/01/01 06:19:08;;;;;;;4.50;3.38;;;;;;;;;;5070775;28;20100;-44
2023/01/01 06:21:34;;;;;;;4.30;3.42;;;;;;;;;;5070974;28;20095;-47
2023/01/01 06:24:00;;;;;;;5.38;3.88;;;;;;;;;;5069488;28;20059;-44
2023/01/01 06:26:27;;;;;;;5.82;3.88;;;;;;;;;;5067163;28;20453;-44
2023/01/01 06:28:55;;;;;;;5.13;4.07;;;;;;;;;;5073636;28;20016;-44
2023/01/01 06:31:21;;;;;;;5.57;3.45;;;;;;;;;;5068942;28;20037;-46
2023/01/01 06:33:47;;;;;;;5.20;3.63;;;;;;;;;;5067955;28;20036;-44
2023/01/01 06:36:14;;;;;;;6.50;3.72;;;;;;;;;;5072085;28;20817;-44
2023/01/01 06:38:45;;;;;;;5.60;3.50;;;;;;;;;;5068840;28;20021;-45
2023/01/01 06:41:12;;;;;;;6.00;3.58;;;;;;;;;;5069760;28;20044;-45
2023/01/01 06:43:38;;;;;;;4.93;3.25;;;;;;;;;;5068735;28;20016;-44
2023/01/01 06:46:20;;;;;;;4.22;3.60;;;;;;;;;;5069379;28;20067;-45
2023/01/01 06:48:48;;;;;;;4.55;2.97;;;;;;;;;;5065307;28;20108;-44
2023/01/01 06:51:15;;;;;;;4.28;3.05;;;;;;;;;;5069579;28;20032;-45
2023/01/01 06:53:41;;;;;;;7.13;4.35;;;;;;;;;;5068178;28;20036;-44
2023/01/01 06:56:08;;;;;;;4.47;3.15;;;;;;;;;;5069569;28;20047;-44
2023/01/01 06:58:34;;;;;;;5.60;3.72;;;;;;;;;;5064243;28;20127;-47
2023/01/01 07:01:04;;;;;;;4.63;3.03;;;;;;;;;;5069875;28;20055;-44
2023/01/01 07:03:30;;;;;;;4.45;2.90;;;;;;;;;;5070849;28;20099;-46
2023/01/01 07:05:56;;;;;;;6.10;3.28;;;;;;;;;;5066065;28;20127;-44
2023/01/01 07:08:22;;;;;;;4.70;3.20;;;;;;;;;;5068614;28;20596;-45
2023/01/01 07:10:48;;;;;;;4.07;3.17;;;;;;;;;;5066879;28;20556;-44
2023/01/01 07:13:14;;;;;;;4.50;3.20;;;;;;;;;;5068331;28;20119;-45
2023/01/01 07:15:42;;;;;;;3.83;2.80;;;;;;;;;;5066023;28;20023;-44
2023/01/01 07:18:08;;;;;;;6.10;3.40;;;;;;;;;;5068649;28;20108;-44
2023/01/01 07:20:34;;;;;;;5.07;3.30;;;;;;;;;;5070196;28;20116;-47
2023/01/01 07:23:03;;;;;;;4.10;3.00;;;;;;;;;;5071304;28;20036;-44
2023/01/01 07:25:29;;;;;;;4.07;2.92;;;;;;;;;;5074166;28;20025;-45
2023/01/01 07:27:55;;;;;;;3.58;2.60;;;;;;;;;;5073206;28;20032;-44
2023/01/01 07:30:21;;;;;;;4.60;2.70;;;;;;;;;;5074139;28;20031;-44
2023/01/01 07:32:47;;;;;;;4.15;2.72;;;;;;;;;;5072600;28;20428;-44
2023/01/01 07:35:13;;;;;;;3.83;2.95;;;;;;;;;;5073956;28;20036;-44
2023/01/01 07:37:39;;;;;;;5.95;3.15;;;;;;;;;;5058625;28;20035;-44
2023/01/01 07:40:05;;;;;;;6.35;3.58;;;;;;;;;;5073233;28;20032;-44
2023/01/01 07:42:31;;;;;;;3.78;2.50;;;;;;;;;;5073652;28;20066;-47
2023/01/01 07:44:57;;;;;;;6.78;2.95;;;;;;;;;;5073008;28;20470;-44
2023/01/01 07:47:25;;;;;;;3.85;2.60;;;;;;;;;;5073819;28;20020;-44
2023/01/01 07:49:51;;;;;;;3.72;2.45;;;;;;;;;;5071840;28;20494;-44
2023/01/01 07:52:17;;;;;;;3.38;2.42;;;;;;;;;;5072143;28;20362;-44
2023/01/01 07:54:44;;;;;;;3.50;2.35;;;;;;;;;;5072063;28;20020;-45
2023/01/01 07:57:10;;;;;;;4.28;2.53;;;;;;;;;;5073706;28;20032;-44
2023/01/01 07:59:36;;;;;;;3.88;2.78;;;;;;;;;;5072339;28;20032;-45
2023/01/01 08:02:02;;;;;;;3.25;2.40;;;;;;;;;;5073498;28;20074;-45
2023/01/01 08:04:28;;;;;;;3.08;2.55;;;;;;;;;;5073301;28;20412;-44
2023/01/01 08:06:54;;;;;;;3.28;2.20;;;;;;;;;;5071784;28;20114;-44
2023/01/01 08:09:20;;;;;;;3.20;2.22;;;;;;;;;;5073006;28;20016;-45
2023/01/01 08:11:46;;;;;;;3.17;2.25;;;;;;;;;;5066899;28;20077;-44
2023/01/01 08:14:12;;;;;;;3.85;2.00;;;;;;;;;;5067258;28;20508;-44
2023/01/01 08:16:38;;;;;;;3.30;2.47;;;;;;;;;;5063283;28;20013;-45
2023/01/01 08:19:04;;;;;;;2.60;2.08;;;;;;;;;;5067497;28;20081;-44
2023/01/01 08:21:30;;;;;;;3.33;2.38;;;;;;;;;;5070477;28;20043;-46
2023/01/01 08:23:56;;;;;;;2.47;2.03;;;;;;;;;;5072062;28;20031;-44
2023/01/01 08:26:30;;;;;;;5.05;2.20;;;;;;;;;;5072882;28;20572;-44
2023/01/01 08:28:56;;;;;;;4.00;2.45;;;;;;;;;;5072027;28;20052;-44
2023/01/01 08:31:22;;;;;;;2.70;2.35;;;;;;;;;;5071930;28;20115;-44
2023/01/01 08:33:48;;;;;;;3.35;2.20;;;;;;;;;;5071841;28;20024;-44
2023/01/01 08:36:15;;;;;;;2.63;1.60;;;;;;;;;;5072510;28;20061;-44
2023/01/01 08:38:41;;;;;;;2.97;2.28;;;;;;;;;;5071432;28;20027;-44
2023/01/01 08:41:07;;;;;;;2.78;2.22;;;;;;;;;;5072550;28;20029;-44
2023/01/01 08:43:33;;;;;;;3.97;2.42;;;;;;;;;;5072072;28;20056;-47
2023/01/01 08:45:59;;;;;;;2.75;2.13;;;;;;;;;;5072726;28;20098;-44
2023/01/01 08:48:25;;;;;;;2.10;1.90;;;;;;;;;;5058086;28;20036;-44
2023/01/01 08:50:52;;;;;;;3.13;2.20;;;;;;;;;;5071601;28;20024;-44
2023/01/01 08:53:18;;;;;;;2.70;2.05;;;;;;;;;;5070326;28;20481;-42
2023/01/01 08:55:44;;;;;;;5.68;2.15;;;;;;;;;;5070675;28;20024;-43
2023/01/01 08:58:10;;;;;;;3.83;2.17;;;;;;;;;;5070312;28;20027;-44
2023/01/01 09:00:36;;;;;;;3.25;1.90;;;;;;;;;;5070520;28;20099;-44
2023/01/01 09:03:02;;;;;;;3.72;2.30;;;;;;;;;;5070950;28;20033;-45
2023/01/01 09:05:28;;;;;;;4.13;2.30;;;;;;;;;;5049879;28;20136;-44
2023/01/01 09:07:54;;;;;;;2.80;1.83;;;;;;;;;;5069306;28;20119;-44
2023/01/01 09:10:20;;;;;;;3.10;1.73;;;;;;;;;;5070969;28;20492;-44
2023/01/01 09:12:46;;;;;;;2.70;2.05;;;;;;;;;;5067113;28;20066;-44
2023/01/01 09:15:16;;;;;;;4.10;1.83;;;;;;;;;;5070278;28;20036;-44
2023/01/01 09:17:42;;;;;;;5.10;1.90;;;;;;;;;;5067336;28;20412;-44
2023/01/01 09:20:08;;;;;;;2.10;1.52;;;;;;;;;;5071093;28;20020;-44
2023/01/01 09:22:34;;;;;;;3.42;2.03;;;;;;;;;;5065612;28;20024;-47
2023/01/01 09:25:00;;;;;;;4.00;2.10;;;;;;;;;;5071281;28;20032;-44
2023/01/01 09:27:26;;;;;;;2.35;1.70;;;;;;;;;;5055720;28;20401;-47
2023/01/01 09:29:52;;;;;;;3.17;1.80;;;;;;;;;;5069513;28;20505;-47
2023/01/01 09:32:18;;;;;;;3.83;1.90;;;;;;;;;;5064772;28;20040;-44
2023/01/01 09:34:44;;;;;;;3.40;1.67;;;;;;;;;;5068677;28;20424;-45
2023/01/01 09:37:10;;;;;;;5.07;1.67;;;;;;;;;;5067531;28;20052;-44
2023/01/01 09:39:36;;;;;;;3.53;1.80;;;;;;;;;;5068685;28;20445;-45
2023/01/01 09:42:02;;;;;;;2.88;1.77;;;;;;;;;;5068622;28;20040;-43
2023/01/01 09:44:46;;;;;;;3.35;1.70;;;;;;;;;;5067790;28;20032;-43
2023/01/01 09:47:24;;;;;;;2.72;1.77;;;;;;;;;;5057068;28;20041;-44
2023/01/01 09:49:51;;;;;;;3.38;2.00;;;;;;;;;;5066014;28;20423;-44
2023/01/01 09:52:18;;;;;;;2.08;1.55;;;;;;;;;;5068558;28;20032;-44
2023/01/01 09:54:50;;;;;;;5.03;2.17;;;;;;;;;;5068929;28;20094;-44
2023/01/01 09:57:16;;;;;;;;;;;;;;;;;;5065290;28;20032;-45
2023/01/01 09:59:42;;;;;;;3.88;1.65;;;;;;;;;;5069246;28;19904;-45
2023/01/01 10:02:27;;;;;;;3.50;1.73;;;;;;;;;;5064418;28;20123;-45
2023/01/01 10:04:55;;;;;;;2.95;1.33;;;;;;;;;;5068538;28;20780;-44
2023/01/01 10:07:33;;;;;;;5.25;2.25;;;;;;;;;;5069130;28;20052;-44
2023/01/01 10:10:02;;;;;;;2.88;1.60;;;;;;;;;;5066370;28;20107;-45
2023/01/01 10:12:34;;;;;;;5.00;2.10;;;;;;;;;;5065019;28;20032;-45
2023/01/01 10:15:09;;;;;;;3.17;1.52;;;;;;;;;;5067271;28;20036;-45
2023/01/01 10:17:43;;;;;;;6.30;1.60;;;;;;;;;;5065683;28;20528;-48
2023/01/01 10:20:28;;;;;;;3.13;1.67;;;;;;;;;;5068868;28;20031;-45
2023/01/01 10:22:59;;;;;;;4.07;1.80;;;;;;;;;;5065124;28;20104;-46
2023/01/01 10:25:27;;;;;;;4.30;1.60;;;;;;;;;;5069868;28;20482;-45
2023/01/01 10:27:57;;;;;;;4.45;2.38;;;;;;;;;;5064964;28;20029;-45
2023/01/01 10:30:24;;;;;;;3.45;1.83;;;;;;;;;;5064884;28;20024;-45
2023/01/01 10:32:51;;;;;;;6.72;1.75;;;;;;;;;;5066366;28;20032;-45
2023/01/01 10:35:21;;;;;;;4.13;1.60;;;;;;;;;;5075424;28;20381;-45
2023/01/01 10:37:51;;;;;;;8.18;2.45;;;;;;;;;;5071605;28;20031;-46
2023/01/01 10:40:21;;;;;;;6.22;2.10;;;;;;;;;;5066493;28;20560;-45
2023/01/01 10:42:51;;;;;;;5.53;2.35;;;;;;;;;;5069505;28;20092;-45
2023/01/01 10:45:19;;;;;;;12.93;5.25;;;;;;;;;;5071119;28;20031;-45
2023/01/01 10:48:03;;;;;;;17.70;9.15;;;;;;;;;;5060766;28;20111;-45
2023/01/01 10:50:41;;;;;;;23.30;13.93;;;;;;;;;;5066886;28;20373;-45
2023/01/01 10:53:18;;;;;;;21.15;12.60;;;;;;;;;;5070367;28;20035;-45
2023/01/01 10:55:48;;;;;;;19.02;11.73;;;;;;;;;;5072120;28;20150;-45
2023/01/01 10:58:26;;;;;;;30.85;12.18;;;;;;;;;;5066686;28;20028;-45
2023/01/01 11:00:58;;;;;;;21.73;10.30;;;;;;;;;;5074166;28;20168;-45
2023/01/01 11:03:24;;;;;;;17.80;9.52;;;;;;;;;;5072725;28;20024;-45
2023/01/01 11:06:13;;;;;;;20.63;8.88;;;;;;;;;;5059778;28;20106;-44
2023/01/01 11:08:46;;;;;;;17.13;7.13;;;;;;;;;;5032537;28;20033;-46
2023/01/01 11:11:19;;;;;;;13.75;6.30;;;;;;;;;;5050272;28;20367;-44
2023/01/01 11:13:47;;;;;;;12.98;6.15;;;;;;;;;;5049366;28;20033;-45
2023/01/01 11:16:13;;;;;;;13.57;6.53;;;;;;;;;;5049380;28;20122;-46
2023/01/01 11:18:39;;;;;;;11.57;4.75;;;;;;;;;;5053527;28;20478;-45
2023/01/01 11:21:06;;;;;;;10.55;5.22;;;;;;;;;;5052750;28;20021;-45
2023/01/01 11:23:34;;;;;;;11.02;6.30;;;;;;;;;;5052983;28;20028;-48
2023/01/01 11:26:12;;;;;;;14.57;5.35;;;;;;;;;;5052421;28;20376;-45
2023/01/01 11:28:38;;;;;;;9.82;4.07;;;;;;;;;;5051172;28;20401;-45
2023/01/01 11:31:13;;;;;;;8.15;4.80;;;;;;;;;;5052992;28;20025;-45
2023/01/01 11:33:43;;;;;;;8.30;3.75;;;;;;;;;;5051581;28;20029;-46
2023/01/01 11:36:10;;;;;;;9.32;4.57;;;;;;;;;;5060555;28;20028;-46
2023/01/01 11:38:36;;;;;;;11.48;4.30;;;;;;;;;;5047322;28;20025;-47
2023/01/01 11:41:04;;;;;;;9.25;4.35;;;;;;;;;;5053943;28;20031;-45
2023/01/01 11:43:33;;;;;;;10.68;4.95;;;;;;;;;;5053767;28;20032;-45
2023/01/01 11:45:59;;;;;;;8.73;3.88;;;;;;;;;;5053508;28;20103;-46
2023/01/01 11:48:25;;;;;;;10.05;4.57;;;;;;;;;;5028600;28;20023;-45
2023/01/01 11:50:58;;;;;;;9.13;4.75;;;;;;;;;;5053178;28;20107;-45
2023/01/01 11:53:24;;;;;;;11.13;3.47;;;;;;;;;;5053279;28;20082;-46
2023/01/01 11:55:56;;;;;;;7.70;3.67;;;;;;;;;;5053050;28;20044;-45
2023/01/01 11:58:27;;;;;;;6.55;3.47;;;;;;;;;;5047080;28;20029;-45
2023/01/01 12:01:14;;;;;;;6.45;4.03;;;;;;;;;;5053234;28;20020;-45
2023/01/01 12:03:47;;;;;;;6.00;3.28;;;;;;;;;;5052247;28;20025;-45
2023/01/01 12:06:19;;;;;;;9.18;4.65;;;;;;;;;;5066523;28;20049;-45
2023/01/01 12:08:48;;;;;;;9.43;3.53;;;;;;;;;;5072224;28;20370;-44
2023/01/01 12:11:29;;;;;;;9.10;4.15;;;;;;;;;;5067903;28;20493;-47
2023/01/01 12:14:27;;;;;;;8.05;3.40;;;;;;;;;;5067954;28;20609;-45
2023/01/01 12:17:02;;;;;;;19.38;5.25;;;;;;;;;;5035061;28;20029;-45
2023/01/01 12:19:32;;;;;;;9.13;3.15;;;;;;;;;;5073111;28;20354;-45
2023/01/01 12:21:59;;;;;;;6.95;3.30;;;;;;;;;;5073143;28;20035;-45
2023/01/01 12:24:27;;;;;;;7.97;3.05;;;;;;;;;;5072722;28;20059;-44
2023/01/01 12:26:56;;;;;;;8.75;3.35;;;;;;;;;;5072713;28;20059;-44
2023/01/01 12:29:28;;;;;;;7.03;3.83;;;;;;;;;;5072875;28;20042;-45
2023/01/01 12:32:01;;;;;;;9.00;3.30;;;;;;;;;;5073387;28;20473;-44
2023/01/01 12:34:30;;;;;;;8.40;3.42;;;;;;;;;;5072738;28;20028;-44
2023/01/01 12:36:59;;;;;;;7.13;3.28;;;;;;;;;;5080709;28;20779;-45
2023/01/01 12:39:28;;;;;;;6.63;3.38;;;;;;;;;;5072482;28;20025;-45
2023/01/01 12:42:00;;;;;;;7.80;3.25;;;;;;;;;;5072430;28;20017;-44
2023/01/01 12:44:26;;;;;;;;;;;;;;;;;;5076170;28;20493;-46
2023/01/01 12:46:58;;;;;;;6.13;3.30;;;;;;;;;;5069735;28;19991;-45
2023/01/01 12:49:24;;;;;;;6.40;3.03;;;;;;;;;;5070303;28;20472;-46
2023/01/01 12:52:01;;;;;;;5.50;3.08;;;;;;;;;;5072308;28;20106;-45
2023/01/01 12:54:45;;;;;;;8.95;3.45;;;;;;;;;;5071545;28;20028;-44
2023/01/01 12:57:26;;;;;;;6.38;2.75;;;;;;;;;;5072135;28;20482;-45
2023/01/01 12:59:53;;;;;;;4.90;2.53;;;;;;;;;;5071475;28;20763;-48
2023/01/01 13:02:23;;;;;;;7.13;2.78;;;;;;;;;;5069006;28;20055;-45
2023/01/01 13:04:51;;;;;;;5.65;2.55;;;;;;;;;;5066763;28;20052;-45
2023/01/01 13:07:22;;;;;;;6.03;2.58;;;;;;;;;;5072890;28;20039;-45
2023/01/01 13:09:48;;;;;;;7.18;3.13;;;;;;;;;;5071687;28;20021;-44
2023/01/01 13:12:17;;;;;;;8.20;2.67;;;;;;;;;;5066508;28;20016;-44
2023/01/01 13:14:45;;;;;;;5.35;2.85;;;;;;;;;;5071127;28;20082;-45
2023/01/01 13:17:21;;;;;;;5.03;2.13;;;;;;;;;;5066810;28;20506;-44
2023/01/01 13:19:48;;;;;;;5.60;2.50;;;;;;;;;;5065277;28;20025;-44
2023/01/01 13:22:26;;;;;;;7.38;2.38;;;;;;;;;;5072141;28;20032;-45
2023/01/01 13:25:04;;;;;;;6.22;3.03;;;;;;;;;;5067232;28;20047;-44
2023/01/01 13:27:49;;;;;;;5.10;1.95;;;;;;;;;;5071882;28;20537;-45
2023/01/01 13:30:34;;;;;;;2.60;1.90;;;;;;;;;;5071941;28;20025;-45
2023/01/01 13:33:22;;;;;;;6.80;2.10;;;;;;;;;;5071401;28;20020;-45
2023/01/01 13:36:11;;;;;;;8.00;2.17;;;;;;;;;;5078725;28;20024;-45
2023/01/01 13:38:47;;;;;;;3.35;1.70;;;;;;;;;;5061673;28;20016;-45
2023/01/01 13:41:34;;;;;;;4.65;1.77;;;;;;;;;;5067033;28;20107;-45
2023/01/01 13:44:00;;;;;;;4.28;2.65;;;;;;;;;;5068511;28;20101;-45
2023/01/01 13:46:29;;;;;;;6.80;2.00;;;;;;;;;;5071246;28;20466;-45
2023/01/01 13:49:05;;;;;;;5.10;3.15;;;;;;;;;;5070620;28;20123;-45
2023/01/01 13:51:45;;;;;;;5.93;2.60;;;;;;;;;;5071869;28;20073;-47
2023/01/01 13:54:30;;;;;;;3.80;2.40;;;;;;;;;;5068588;28;20025;-45
2023/01/01 13:57:21;;;;;;;3.90;1.75;;;;;;;;;;5070411;28;20035;-45
2023/01/01 14:00:05;;;;;;;4.70;2.22;;;;;;;;;;5070214;28;20027;-45
2023/01/01 14:02:35;;;;;;;5.40;2.50;;;;;;;;;;5059251;28;20074;-48
2023/01/01 14:05:01;;;;;;;4.45;1.95;;;;;;;;;;5070485;28;21175;-45
2023/01/01 14:07:33;;;;;;;4.88;1.70;;;;;;;;;;5071755;28;20486;-44
2023/01/01 14:10:16;;;;;;;4.00;2.10;;;;;;;;;;5070825;28;20043;-45
2023/01/01 14:12:42;;;;;;;3.70;2.00;;;;;;;;;;5064078;28;20019;-45
2023/01/01 14:15:35;;;;;;;5.05;2.47;;;;;;;;;;5070891;28;20111;-45
2023/01/01 14:18:02;;;;;;;6.80;1.90;;;;;;;;;;5066356;28;20049;-45
2023/01/01 14:20:32;;;;;;;3.95;2.03;;;;;;;;;;5071618;28;20060;-45
2023/01/01 14:23:01;;;;;;;3.75;1.95;;;;;;;;;;5070066;28;20039;-45
2023/01/01 14:25:28;;;;;;;5.90;1.95;;;;;;;;;;5071140;28;20031;-45
2023/01/01 14:27:56;;;;;;;4.38;1.65;;;;;;;;;;5066249;28;20784;-45
2023/01/01 14:30:22;;;;;;;5.13;1.88;;;;;;;;;;5070932;28;20024;-45
2023/01/01 14:32:55;;;;;;;4.32;1.60;;;;;;;;;;5069879;28;20020;-45
2023/01/01 14:35:21;;;;;;;3.78;1.85;;;;;;;;;;5073392;28;20035;-45
2023/01/01 14:37:47;;;;;;;6.32;2.25;;;;;;;;;;5072037;28;20033;-45
2023/01/01 14:40:29;;;;;;;2.60;1.77;;;;;;;;;;5070829;28;20021;-45
2023/01/01 14:42:55;;;;;;;;;;;;;;;;;;5070325;28;20642;-44
2023/01/01 14:45:21;;;;;;;3.97;1.50;;;;;;;;;;5070681;28;19908;-45
2023/01/01 14:47:52;;;;;;;3.03;2.17;;;;;;;;;;5061516;28;20458;-45
2023/01/01 14:50:18;;;;;;;3.85;2.72;;;;;;;;;;5064988;28;20024;-45
2023/01/01 14:52:44;;;;;;;3.80;2.22;;;;;;;;;;5069562;28;20016;-46
2023/01/01 14:55:18;;;;;;;3.55;1.55;;;;;;;;;;5070874;28;20035;-45
2023/01/01 14:57:46;;;;;;;2.55;1.52;;;;;;;;;;5069030;28;20366;-45
2023/01/01 15:00:23;;;;;;;3.15;1.60;;;;;;;;;;5070490;28;20025;-45